sensor_id;sensor_type;location;lat;lon;timestamp;P1;durP1;ratioP1;P2;durP2;ratioP2
22068;SDS011;13887;57.196;-2.100;2023-07-29T00:00:09;12.30;;;11.90;;
22068;SDS011;13887;57.196;-2.100;2023-07-29T00:02:40;12.57;;;12.17;;
22068;SDS011;13887;57.196;-2.100;2023-07-29T00:05:07;12.70;;;12.30;;
22068;SDS011;13887;57.196;-2.100;2023-07-29T00:07:34;12.73;;;12.33;;
22068;SDS011;13887;57.196;-2.100;2023-07-29T00:10:02;12.60;;;12.20;;
22068;SDS011;13887;57.196;-2.100;2023-07-29T00:12:30;12.40;;;12.00;;
22068;SDS011;13887;57.196;-2.100;2023-07-29T00:14:57;12.70;;;12.30;;
22068;SDS011;13887;57.196;-2.100;2023-07-29T00:17:24;12.37;;;11.97;;
22068;SDS011;13887;57.196;-2.100;2023-07-29T00:19:51;12.17;;;11.77;;
22068;SDS011;13887;57.196;-2.100;2023-07-29T00:22:18;12.10;;;11.70;;
22068;SDS011;13887;57.196;-2.100;2023-07-29T00:24:50;12.40;;;12.00;;
22068;SDS011;13887;57.196;-2.100;2023-07-29T00:27:18;12.03;;;11.63;;
22068;SDS011;13887;57.196;-2.100;2023-07-29T00:29:47;12.30;;;11.90;;
22068;SDS011;13887;57.196;-2.100;2023-07-29T00:32:14;12.40;;;12.00;;
22068;SDS011;13887;57.196;-2.100;2023-07-29T00:34:44;12.20;;;11.80;;
22068;SDS011;13887;57.196;-2.100;2023-07-29T00:37:11;12.37;;;11.97;;
22068;SDS011;13887;57.196;-2.100;2023-07-29T00:39:38;12.20;;;11.80;;
22068;SDS011;13887;57.196;-2.100;2023-07-29T00:42:08;12.80;;;12.40;;
22068;SDS011;13887;57.196;-2.100;2023-07-29T00:44:35;12.70;;;12.30;;
22068;SDS011;13887;57.196;-2.100;2023-07-29T00:47:03;12.40;;;12.00;;
22068;SDS011;13887;57.196;-2.100;2023-07-29T00:49:32;12.60;;;12.20;;
22068;SDS011;13887;57.196;-2.100;2023-07-29T00:52:00;12.40;;;12.00;;
22068;SDS011;13887;57.196;-2.100;2023-07-29T00:54:27;12.10;;;11.70;;
22068;SDS011;13887;57.196;-2.100;2023-07-29T00:56:54;12.80;;;12.40;;
22068;SDS011;13887;57.196;-2.100;2023-07-29T00:59:21;12.67;;;12.27;;
22068;SDS011;13887;57.196;-2.100;2023-07-29T01:01:49;12.70;;;12.30;;
22068;SDS011;13887;57.196;-2.100;2023-07-29T01:04:16;12.20;;;11.80;;
22068;SDS011;13887;57.196;-2.100;2023-07-29T01:10:15;11.97;;;11.57;;
22068;SDS011;13887;57.196;-2.100;2023-07-29T01:13:00;12.70;;;12.30;;
22068;SDS011;13887;57.196;-2.100;2023-07-29T01:15:40;12.30;;;11.90;;
22068;SDS011;13887;57.196;-2.100;2023-07-29T01:18:27;12.27;;;11.87;;
22068;SDS011;13887;57.196;-2.100;2023-07-29T01:20:59;12.27;;;11.87;;
22068;SDS011;13887;57.196;-2.100;2023-07-29T01:23:31;12.40;;;12.00;;
22068;SDS011;13887;57.196;-2.100;2023-07-29T01:26:00;12.20;;;11.80;;
22068;SDS011;13887;57.196;-2.100;2023-07-29T01:28:28;12.20;;;11.80;;
22068;SDS011;13887;57.196;-2.100;2023-07-29T01:31:03;12.37;;;11.97;;
22068;SDS011;13887;57.196;-2.100;2023-07-29T01:33:40;12.83;;;12.43;;
22068;SDS011;13887;57.196;-2.100;2023-07-29T01:36:17;12.23;;;11.83;;
22068;SDS011;13887;57.196;-2.100;2023-07-29T01:38:49;12.40;;;12.00;;
22068;SDS011;13887;57.196;-2.100;2023-07-29T01:41:19;12.50;;;12.10;;
22068;SDS011;13887;57.196;-2.100;2023-07-29T01:43:47;12.73;;;12.33;;
22068;SDS011;13887;57.196;-2.100;2023-07-29T01:46:15;12.70;;;12.30;;
22068;SDS011;13887;57.196;-2.100;2023-07-29T01:48:43;13.00;;;12.60;;
22068;SDS011;13887;57.196;-2.100;2023-07-29T01:51:12;12.67;;;12.27;;
22068;SDS011;13887;57.196;-2.100;2023-07-29T01:53:40;12.47;;;12.07;;
22068;SDS011;13887;57.196;-2.100;2023-07-29T01:56:07;12.60;;;12.20;;
22068;SDS011;13887;57.196;-2.100;2023-07-29T01:58:38;12.70;;;12.30;;
22068;SDS011;13887;57.196;-2.100;2023-07-29T02:01:05;13.00;;;12.60;;
22068;SDS011;13887;57.196;-2.100;2023-07-29T02:03:32;12.70;;;12.30;;
22068;SDS011;13887;57.196;-2.100;2023-07-29T02:05:59;12.63;;;12.23;;
22068;SDS011;13887;57.196;-2.100;2023-07-29T02:08:26;12.53;;;12.13;;
22068;SDS011;13887;57.196;-2.100;2023-07-29T02:10:54;12.57;;;12.17;;
22068;SDS011;13887;57.196;-2.100;2023-07-29T02:13:21;12.60;;;12.20;;
22068;SDS011;13887;57.196;-2.100;2023-07-29T02:15:48;12.47;;;12.07;;
22068;SDS011;13887;57.196;-2.100;2023-07-29T02:18:15;12.50;;;12.10;;
22068;SDS011;13887;57.196;-2.100;2023-07-29T02:20:42;12.80;;;12.40;;
22068;SDS011;13887;57.196;-2.100;2023-07-29T02:23:16;12.40;;;12.00;;
22068;SDS011;13887;57.196;-2.100;2023-07-29T02:25:44;12.63;;;12.23;;
22068;SDS011;13887;57.196;-2.100;2023-07-29T02:28:12;12.87;;;12.47;;
22068;SDS011;13887;57.196;-2.100;2023-07-29T02:30:45;12.53;;;12.13;;
22068;SDS011;13887;57.196;-2.100;2023-07-29T02:33:13;12.67;;;12.27;;
22068;SDS011;13887;57.196;-2.100;2023-07-29T02:35:40;12.80;;;12.40;;
22068;SDS011;13887;57.196;-2.100;2023-07-29T02:38:07;12.70;;;12.30;;
22068;SDS011;13887;57.196;-2.100;2023-07-29T02:40:34;12.53;;;12.13;;
22068;SDS011;13887;57.196;-2.100;2023-07-29T02:43:01;12.63;;;12.23;;
22068;SDS011;13887;57.196;-2.100;2023-07-29T02:45:28;12.73;;;12.33;;
22068;SDS011;13887;57.196;-2.100;2023-07-29T02:47:56;12.50;;;12.10;;
22068;SDS011;13887;57.196;-2.100;2023-07-29T02:50:23;12.43;;;12.03;;
22068;SDS011;13887;57.196;-2.100;2023-07-29T02:52:50;12.57;;;12.17;;
22068;SDS011;13887;57.196;-2.100;2023-07-29T02:55:18;12.40;;;12.00;;
22068;SDS011;13887;57.196;-2.100;2023-07-29T02:57:45;12.13;;;11.73;;
22068;SDS011;13887;57.196;-2.100;2023-07-29T03:00:13;12.10;;;11.70;;
22068;SDS011;13887;57.196;-2.100;2023-07-29T03:02:41;12.03;;;11.63;;
22068;SDS011;13887;57.196;-2.100;2023-07-29T03:05:09;12.13;;;11.73;;
22068;SDS011;13887;57.196;-2.100;2023-07-29T03:07:36;12.10;;;11.70;;
22068;SDS011;13887;57.196;-2.100;2023-07-29T03:10:03;12.20;;;11.80;;
22068;SDS011;13887;57.196;-2.100;2023-07-29T03:12:31;12.47;;;12.07;;
22068;SDS011;13887;57.196;-2.100;2023-07-29T03:14:58;11.97;;;11.57;;
22068;SDS011;13887;57.196;-2.100;2023-07-29T03:17:27;12.10;;;11.70;;
22068;SDS011;13887;57.196;-2.100;2023-07-29T03:19:54;12.27;;;11.87;;
22068;SDS011;13887;57.196;-2.100;2023-07-29T03:22:21;12.03;;;11.63;;
22068;SDS011;13887;57.196;-2.100;2023-07-29T03:24:49;12.60;;;12.20;;
22068;SDS011;13887;57.196;-2.100;2023-07-29T03:27:16;12.27;;;11.87;;
22068;SDS011;13887;57.196;-2.100;2023-07-29T03:29:43;12.40;;;12.00;;
22068;SDS011;13887;57.196;-2.100;2023-07-29T03:32:11;12.10;;;11.70;;
22068;SDS011;13887;57.196;-2.100;2023-07-29T03:34:38;11.80;;;11.40;;
22068;SDS011;13887;57.196;-2.100;2023-07-29T03:37:07;12.27;;;11.87;;
22068;SDS011;13887;57.196;-2.100;2023-07-29T03:39:34;11.97;;;11.57;;
22068;SDS011;13887;57.196;-2.100;2023-07-29T03:42:01;12.07;;;11.67;;
22068;SDS011;13887;57.196;-2.100;2023-07-29T03:44:28;12.30;;;11.90;;
22068;SDS011;13887;57.196;-2.100;2023-07-29T03:46:55;12.27;;;11.87;;
22068;SDS011;13887;57.196;-2.100;2023-07-29T03:49:22;11.90;;;11.50;;
22068;SDS011;13887;57.196;-2.100;2023-07-29T03:51:50;11.93;;;11.53;;
22068;SDS011;13887;57.196;-2.100;2023-07-29T03:54:17;11.90;;;11.50;;
22068;SDS011;13887;57.196;-2.100;2023-07-29T03:56:44;12.03;;;11.63;;
22068;SDS011;13887;57.196;-2.100;2023-07-29T03:59:11;12.10;;;11.70;;
22068;SDS011;13887;57.196;-2.100;2023-07-29T04:01:38;12.13;;;11.73;;
22068;SDS011;13887;57.196;-2.100;2023-07-29T04:04:06;12.10;;;11.70;;
22068;SDS011;13887;57.196;-2.100;2023-07-29T04:06:33;12.60;;;12.20;;
22068;SDS011;13887;57.196;-2.100;2023-07-29T04:09:01;12.40;;;12.00;;
22068;SDS011;13887;57.196;-2.100;2023-07-29T04:11:29;11.77;;;11.37;;
22068;SDS011;13887;57.196;-2.100;2023-07-29T04:13:56;11.93;;;11.53;;
22068;SDS011;13887;57.196;-2.100;2023-07-29T04:16:23;12.00;;;11.60;;
22068;SDS011;13887;57.196;-2.100;2023-07-29T04:18:50;12.23;;;11.83;;
22068;SDS011;13887;57.196;-2.100;2023-07-29T04:21:19;12.20;;;11.80;;
22068;SDS011;13887;57.196;-2.100;2023-07-29T04:23:46;12.60;;;12.20;;
22068;SDS011;13887;57.196;-2.100;2023-07-29T04:26:14;12.37;;;11.97;;
22068;SDS011;13887;57.196;-2.100;2023-07-29T04:28:41;12.20;;;11.80;;
22068;SDS011;13887;57.196;-2.100;2023-07-29T04:31:09;12.00;;;11.60;;
22068;SDS011;13887;57.196;-2.100;2023-07-29T04:33:36;11.77;;;11.37;;
22068;SDS011;13887;57.196;-2.100;2023-07-29T04:36:03;12.20;;;11.80;;
22068;SDS011;13887;57.196;-2.100;2023-07-29T04:38:31;12.40;;;12.00;;
22068;SDS011;13887;57.196;-2.100;2023-07-29T04:41:00;12.40;;;12.00;;
22068;SDS011;13887;57.196;-2.100;2023-07-29T04:43:30;12.40;;;12.00;;
22068;SDS011;13887;57.196;-2.100;2023-07-29T04:45:58;12.10;;;11.70;;
22068;SDS011;13887;57.196;-2.100;2023-07-29T04:48:26;12.50;;;12.10;;
22068;SDS011;13887;57.196;-2.100;2023-07-29T04:50:53;12.20;;;11.80;;
22068;SDS011;13887;57.196;-2.100;2023-07-29T04:53:20;12.30;;;11.90;;
22068;SDS011;13887;57.196;-2.100;2023-07-29T04:55:48;12.47;;;12.07;;
22068;SDS011;13887;57.196;-2.100;2023-07-29T04:58:15;12.57;;;12.17;;
22068;SDS011;13887;57.196;-2.100;2023-07-29T05:00:42;12.37;;;11.97;;
22068;SDS011;13887;57.196;-2.100;2023-07-29T05:03:09;12.53;;;12.13;;
22068;SDS011;13887;57.196;-2.100;2023-07-29T05:05:36;12.47;;;12.07;;
22068;SDS011;13887;57.196;-2.100;2023-07-29T05:08:04;12.10;;;11.70;;
22068;SDS011;13887;57.196;-2.100;2023-07-29T05:10:31;12.00;;;11.60;;
22068;SDS011;13887;57.196;-2.100;2023-07-29T05:12:58;12.40;;;12.00;;
22068;SDS011;13887;57.196;-2.100;2023-07-29T05:15:26;12.43;;;12.03;;
22068;SDS011;13887;57.196;-2.100;2023-07-29T05:17:53;12.43;;;12.03;;
22068;SDS011;13887;57.196;-2.100;2023-07-29T05:20:20;12.43;;;12.03;;
22068;SDS011;13887;57.196;-2.100;2023-07-29T05:22:47;12.77;;;12.37;;
22068;SDS011;13887;57.196;-2.100;2023-07-29T05:25:14;11.90;;;11.50;;
22068;SDS011;13887;57.196;-2.100;2023-07-29T05:27:42;12.10;;;11.70;;
22068;SDS011;13887;57.196;-2.100;2023-07-29T05:30:09;12.53;;;12.13;;
22068;SDS011;13887;57.196;-2.100;2023-07-29T05:32:36;12.60;;;12.20;;
22068;SDS011;13887;57.196;-2.100;2023-07-29T05:35:05;12.80;;;12.40;;
22068;SDS011;13887;57.196;-2.100;2023-07-29T05:37:32;12.33;;;11.93;;
22068;SDS011;13887;57.196;-2.100;2023-07-29T05:39:59;12.40;;;12.00;;
22068;SDS011;13887;57.196;-2.100;2023-07-29T05:42:27;12.23;;;11.83;;
22068;SDS011;13887;57.196;-2.100;2023-07-29T05:44:54;12.40;;;12.00;;
22068;SDS011;13887;57.196;-2.100;2023-07-29T05:47:21;12.53;;;12.13;;
22068;SDS011;13887;57.196;-2.100;2023-07-29T05:49:49;12.57;;;12.17;;
22068;SDS011;13887;57.196;-2.100;2023-07-29T05:52:16;12.53;;;12.13;;
22068;SDS011;13887;57.196;-2.100;2023-07-29T05:54:43;12.60;;;12.20;;
22068;SDS011;13887;57.196;-2.100;2023-07-29T05:57:11;12.30;;;11.90;;
22068;SDS011;13887;57.196;-2.100;2023-07-29T05:59:39;12.50;;;12.10;;
22068;SDS011;13887;57.196;-2.100;2023-07-29T06:02:07;12.07;;;11.67;;
22068;SDS011;13887;57.196;-2.100;2023-07-29T06:04:34;12.30;;;11.90;;
22068;SDS011;13887;57.196;-2.100;2023-07-29T06:07:01;12.50;;;12.10;;
22068;SDS011;13887;57.196;-2.100;2023-07-29T06:09:28;12.67;;;12.27;;
22068;SDS011;13887;57.196;-2.100;2023-07-29T06:11:56;12.47;;;12.07;;
22068;SDS011;13887;57.196;-2.100;2023-07-29T06:14:23;12.57;;;12.17;;
22068;SDS011;13887;57.196;-2.100;2023-07-29T06:16:51;12.50;;;12.10;;
22068;SDS011;13887;57.196;-2.100;2023-07-29T06:19:19;12.80;;;12.40;;
22068;SDS011;13887;57.196;-2.100;2023-07-29T06:21:47;12.83;;;12.43;;
22068;SDS011;13887;57.196;-2.100;2023-07-29T06:24:15;12.53;;;12.13;;
22068;SDS011;13887;57.196;-2.100;2023-07-29T06:26:42;12.33;;;11.93;;
22068;SDS011;13887;57.196;-2.100;2023-07-29T06:29:09;12.50;;;12.10;;
22068;SDS011;13887;57.196;-2.100;2023-07-29T06:31:36;12.80;;;12.40;;
22068;SDS011;13887;57.196;-2.100;2023-07-29T06:34:03;12.50;;;12.10;;
22068;SDS011;13887;57.196;-2.100;2023-07-29T06:36:30;12.70;;;12.30;;
22068;SDS011;13887;57.196;-2.100;2023-07-29T06:38:57;12.50;;;12.10;;
22068;SDS011;13887;57.196;-2.100;2023-07-29T06:41:24;12.70;;;12.30;;
22068;SDS011;13887;57.196;-2.100;2023-07-29T06:43:51;12.87;;;12.47;;
22068;SDS011;13887;57.196;-2.100;2023-07-29T06:46:18;12.77;;;12.37;;
22068;SDS011;13887;57.196;-2.100;2023-07-29T06:48:46;12.70;;;12.30;;
22068;SDS011;13887;57.196;-2.100;2023-07-29T06:51:12;12.73;;;12.33;;
22068;SDS011;13887;57.196;-2.100;2023-07-29T06:53:40;12.63;;;12.23;;
22068;SDS011;13887;57.196;-2.100;2023-07-29T06:56:07;12.60;;;12.20;;
22068;SDS011;13887;57.196;-2.100;2023-07-29T06:58:34;12.70;;;12.30;;
22068;SDS011;13887;57.196;-2.100;2023-07-29T07:01:01;12.50;;;12.10;;
22068;SDS011;13887;57.196;-2.100;2023-07-29T07:03:30;13.10;;;12.70;;
22068;SDS011;13887;57.196;-2.100;2023-07-29T07:05:57;12.60;;;12.20;;
22068;SDS011;13887;57.196;-2.100;2023-07-29T07:08:24;12.47;;;12.07;;
22068;SDS011;13887;57.196;-2.100;2023-07-29T07:10:51;12.40;;;12.00;;
22068;SDS011;13887;57.196;-2.100;2023-07-29T07:13:18;12.40;;;12.00;;
22068;SDS011;13887;57.196;-2.100;2023-07-29T07:15:46;12.60;;;12.20;;
22068;SDS011;13887;57.196;-2.100;2023-07-29T07:18:14;12.50;;;12.10;;
22068;SDS011;13887;57.196;-2.100;2023-07-29T07:20:41;12.47;;;12.07;;
22068;SDS011;13887;57.196;-2.100;2023-07-29T07:23:08;12.70;;;12.30;;
22068;SDS011;13887;57.196;-2.100;2023-07-29T07:25:38;13.07;;;12.67;;
22068;SDS011;13887;57.196;-2.100;2023-07-29T07:28:05;12.70;;;12.30;;
22068;SDS011;13887;57.196;-2.100;2023-07-29T07:30:33;12.60;;;12.20;;
22068;SDS011;13887;57.196;-2.100;2023-07-29T07:33:00;12.37;;;11.97;;
22068;SDS011;13887;57.196;-2.100;2023-07-29T07:35:27;12.70;;;12.30;;
22068;SDS011;13887;57.196;-2.100;2023-07-29T07:37:54;12.53;;;12.13;;
22068;SDS011;13887;57.196;-2.100;2023-07-29T07:40:21;12.80;;;12.40;;
22068;SDS011;13887;57.196;-2.100;2023-07-29T07:42:49;12.90;;;12.50;;
22068;SDS011;13887;57.196;-2.100;2023-07-29T07:45:16;12.50;;;12.10;;
22068;SDS011;13887;57.196;-2.100;2023-07-29T07:47:44;12.60;;;12.20;;
22068;SDS011;13887;57.196;-2.100;2023-07-29T07:50:11;12.40;;;12.00;;
22068;SDS011;13887;57.196;-2.100;2023-07-29T07:52:40;12.73;;;12.33;;
22068;SDS011;13887;57.196;-2.100;2023-07-29T07:55:07;12.73;;;12.33;;
22068;SDS011;13887;57.196;-2.100;2023-07-29T07:57:35;12.80;;;12.40;;
22068;SDS011;13887;57.196;-2.100;2023-07-29T08:00:02;12.10;;;11.70;;
22068;SDS011;13887;57.196;-2.100;2023-07-29T08:02:38;12.50;;;12.10;;
22068;SDS011;13887;57.196;-2.100;2023-07-29T08:05:05;12.50;;;12.10;;
22068;SDS011;13887;57.196;-2.100;2023-07-29T08:07:33;12.27;;;11.87;;
22068;SDS011;13887;57.196;-2.100;2023-07-29T08:10:00;12.30;;;11.90;;
22068;SDS011;13887;57.196;-2.100;2023-07-29T08:12:27;12.20;;;11.80;;
22068;SDS011;13887;57.196;-2.100;2023-07-29T08:14:54;12.00;;;11.60;;
22068;SDS011;13887;57.196;-2.100;2023-07-29T08:17:21;12.50;;;12.10;;
22068;SDS011;13887;57.196;-2.100;2023-07-29T08:19:48;11.80;;;11.40;;
22068;SDS011;13887;57.196;-2.100;2023-07-29T08:22:16;11.90;;;11.50;;
22068;SDS011;13887;57.196;-2.100;2023-07-29T08:24:43;11.90;;;11.50;;
22068;SDS011;13887;57.196;-2.100;2023-07-29T08:27:11;11.83;;;11.43;;
22068;SDS011;13887;57.196;-2.100;2023-07-29T08:29:38;11.83;;;11.43;;
22068;SDS011;13887;57.196;-2.100;2023-07-29T08:32:05;11.87;;;11.47;;
22068;SDS011;13887;57.196;-2.100;2023-07-29T08:34:33;12.23;;;11.83;;
22068;SDS011;13887;57.196;-2.100;2023-07-29T08:37:00;12.50;;;12.10;;
22068;SDS011;13887;57.196;-2.100;2023-07-29T08:39:28;12.53;;;12.13;;
22068;SDS011;13887;57.196;-2.100;2023-07-29T08:42:03;12.33;;;11.93;;
22068;SDS011;13887;57.196;-2.100;2023-07-29T08:44:40;12.10;;;11.70;;
22068;SDS011;13887;57.196;-2.100;2023-07-29T08:47:09;12.17;;;11.77;;
22068;SDS011;13887;57.196;-2.100;2023-07-29T08:49:36;12.30;;;11.90;;
22068;SDS011;13887;57.196;-2.100;2023-07-29T08:52:05;12.17;;;11.77;;
22068;SDS011;13887;57.196;-2.100;2023-07-29T08:54:33;12.50;;;12.10;;
22068;SDS011;13887;57.196;-2.100;2023-07-29T08:57:01;12.40;;;12.00;;
22068;SDS011;13887;57.196;-2.100;2023-07-29T08:59:30;12.70;;;12.30;;
22068;SDS011;13887;57.196;-2.100;2023-07-29T09:01:58;12.43;;;12.03;;
22068;SDS011;13887;57.196;-2.100;2023-07-29T09:04:25;12.50;;;12.10;;
22068;SDS011;13887;57.196;-2.100;2023-07-29T09:06:52;11.80;;;11.40;;
22068;SDS011;13887;57.196;-2.100;2023-07-29T09:09:21;12.53;;;12.13;;
22068;SDS011;13887;57.196;-2.100;2023-07-29T09:11:49;12.37;;;11.97;;
22068;SDS011;13887;57.196;-2.100;2023-07-29T09:14:16;12.23;;;11.83;;
22068;SDS011;13887;57.196;-2.100;2023-07-29T09:16:43;12.23;;;11.83;;
22068;SDS011;13887;57.196;-2.100;2023-07-29T09:19:11;12.23;;;11.83;;
22068;SDS011;13887;57.196;-2.100;2023-07-29T09:21:38;12.73;;;12.33;;
22068;SDS011;13887;57.196;-2.100;2023-07-29T09:24:07;12.60;;;12.20;;
22068;SDS011;13887;57.196;-2.100;2023-07-29T09:26:35;12.90;;;12.50;;
22068;SDS011;13887;57.196;-2.100;2023-07-29T09:29:03;12.47;;;12.07;;
22068;SDS011;13887;57.196;-2.100;2023-07-29T09:31:30;12.57;;;12.17;;
22068;SDS011;13887;57.196;-2.100;2023-07-29T09:36:26;11.90;;;11.50;;
22068;SDS011;13887;57.196;-2.100;2023-07-29T09:38:54;12.80;;;12.40;;
22068;SDS011;13887;57.196;-2.100;2023-07-29T09:41:23;12.50;;;12.10;;
22068;SDS011;13887;57.196;-2.100;2023-07-29T09:43:58;12.47;;;12.07;;
22068;SDS011;13887;57.196;-2.100;2023-07-29T09:46:32;12.60;;;12.20;;
22068;SDS011;13887;57.196;-2.100;2023-07-29T09:49:03;12.73;;;12.33;;
22068;SDS011;13887;57.196;-2.100;2023-07-29T09:51:41;12.27;;;11.87;;
22068;SDS011;13887;57.196;-2.100;2023-07-29T09:54:08;12.27;;;11.87;;
22068;SDS011;13887;57.196;-2.100;2023-07-29T09:56:39;12.33;;;11.93;;
22068;SDS011;13887;57.196;-2.100;2023-07-29T09:59:09;12.33;;;11.93;;
22068;SDS011;13887;57.196;-2.100;2023-07-29T10:01:37;12.20;;;11.80;;
22068;SDS011;13887;57.196;-2.100;2023-07-29T10:04:05;12.30;;;11.90;;
22068;SDS011;13887;57.196;-2.100;2023-07-29T10:06:34;12.43;;;12.03;;
22068;SDS011;13887;57.196;-2.100;2023-07-29T10:09:04;12.33;;;11.93;;
22068;SDS011;13887;57.196;-2.100;2023-07-29T10:11:32;12.10;;;11.70;;
22068;SDS011;13887;57.196;-2.100;2023-07-29T10:14:02;12.40;;;12.00;;
22068;SDS011;13887;57.196;-2.100;2023-07-29T10:16:37;12.07;;;11.67;;
22068;SDS011;13887;57.196;-2.100;2023-07-29T10:19:07;12.30;;;11.90;;
22068;SDS011;13887;57.196;-2.100;2023-07-29T10:21:36;11.90;;;11.50;;
22068;SDS011;13887;57.196;-2.100;2023-07-29T10:24:06;12.70;;;12.30;;
22068;SDS011;13887;57.196;-2.100;2023-07-29T10:26:40;12.33;;;11.93;;
22068;SDS011;13887;57.196;-2.100;2023-07-29T10:29:11;12.03;;;11.63;;
22068;SDS011;13887;57.196;-2.100;2023-07-29T10:31:40;11.93;;;11.53;;
22068;SDS011;13887;57.196;-2.100;2023-07-29T10:34:10;12.40;;;12.00;;
22068;SDS011;13887;57.196;-2.100;2023-07-29T10:36:39;12.50;;;12.10;;
22068;SDS011;13887;57.196;-2.100;2023-07-29T10:39:08;12.67;;;12.27;;
22068;SDS011;13887;57.196;-2.100;2023-07-29T10:49:44;12.07;;;11.67;;
22068;SDS011;13887;57.196;-2.100;2023-07-29T10:52:12;11.73;;;11.33;;
22068;SDS011;13887;57.196;-2.100;2023-07-29T10:54:41;11.93;;;11.53;;
22068;SDS011;13887;57.196;-2.100;2023-07-29T10:57:13;11.67;;;11.27;;
22068;SDS011;13887;57.196;-2.100;2023-07-29T10:59:53;12.10;;;11.70;;
22068;SDS011;13887;57.196;-2.100;2023-07-29T11:02:28;12.03;;;11.63;;
22068;SDS011;13887;57.196;-2.100;2023-07-29T11:04:58;11.90;;;11.50;;
22068;SDS011;13887;57.196;-2.100;2023-07-29T11:07:26;11.83;;;11.43;;
22068;SDS011;13887;57.196;-2.100;2023-07-29T11:10:01;11.70;;;11.30;;
22068;SDS011;13887;57.196;-2.100;2023-07-29T11:17:37;12.03;;;11.63;;
22068;SDS011;13887;57.196;-2.100;2023-07-29T11:20:06;11.57;;;11.17;;
22068;SDS011;13887;57.196;-2.100;2023-07-29T11:22:34;11.70;;;11.30;;
22068;SDS011;13887;57.196;-2.100;2023-07-29T11:25:03;11.70;;;11.30;;
22068;SDS011;13887;57.196;-2.100;2023-07-29T11:27:32;12.10;;;11.70;;
22068;SDS011;13887;57.196;-2.100;2023-07-29T11:30:03;12.10;;;11.70;;
22068;SDS011;13887;57.196;-2.100;2023-07-29T11:32:32;11.80;;;11.40;;
22068;SDS011;13887;57.196;-2.100;2023-07-29T11:37:49;11.77;;;11.37;;
22068;SDS011;13887;57.196;-2.100;2023-07-29T11:40:18;11.70;;;11.30;;
22068;SDS011;13887;57.196;-2.100;2023-07-29T11:42:48;11.47;;;11.07;;
22068;SDS011;13887;57.196;-2.100;2023-07-29T11:45:19;11.20;;;10.90;;
22068;SDS011;13887;57.196;-2.100;2023-07-29T11:47:51;12.00;;;11.60;;
22068;SDS011;13887;57.196;-2.100;2023-07-29T11:50:18;11.73;;;11.33;;
22068;SDS011;13887;57.196;-2.100;2023-07-29T11:52:46;11.80;;;11.40;;
22068;SDS011;13887;57.196;-2.100;2023-07-29T11:55:14;11.80;;;11.40;;
22068;SDS011;13887;57.196;-2.100;2023-07-29T11:57:42;11.90;;;11.50;;
22068;SDS011;13887;57.196;-2.100;2023-07-29T12:00:10;11.70;;;11.30;;
22068;SDS011;13887;57.196;-2.100;2023-07-29T12:02:42;11.93;;;11.53;;
22068;SDS011;13887;57.196;-2.100;2023-07-29T12:05:11;11.57;;;11.17;;
22068;SDS011;13887;57.196;-2.100;2023-07-29T12:07:41;11.97;;;11.57;;
22068;SDS011;13887;57.196;-2.100;2023-07-29T12:10:09;11.50;;;11.10;;
22068;SDS011;13887;57.196;-2.100;2023-07-29T12:12:44;11.40;;;11.00;;
22068;SDS011;13887;57.196;-2.100;2023-07-29T12:15:24;11.70;;;11.30;;
22068;SDS011;13887;57.196;-2.100;2023-07-29T12:17:54;11.23;;;10.93;;
22068;SDS011;13887;57.196;-2.100;2023-07-29T12:20:26;11.13;;;10.83;;
22068;SDS011;13887;57.196;-2.100;2023-07-29T12:22:54;11.57;;;11.17;;
22068;SDS011;13887;57.196;-2.100;2023-07-29T12:25:22;11.80;;;11.40;;
22068;SDS011;13887;57.196;-2.100;2023-07-29T12:27:50;11.63;;;11.23;;
22068;SDS011;13887;57.196;-2.100;2023-07-29T12:30:21;11.73;;;11.33;;
22068;SDS011;13887;57.196;-2.100;2023-07-29T12:32:48;11.77;;;11.37;;
22068;SDS011;13887;57.196;-2.100;2023-07-29T12:35:16;11.60;;;11.20;;
22068;SDS011;13887;57.196;-2.100;2023-07-29T12:37:43;11.43;;;11.03;;
22068;SDS011;13887;57.196;-2.100;2023-07-29T12:40:25;11.90;;;11.50;;
22068;SDS011;13887;57.196;-2.100;2023-07-29T12:42:54;12.30;;;11.90;;
22068;SDS011;13887;57.196;-2.100;2023-07-29T12:45:21;12.27;;;11.87;;
22068;SDS011;13887;57.196;-2.100;2023-07-29T12:47:55;12.57;;;12.17;;
22068;SDS011;13887;57.196;-2.100;2023-07-29T12:50:23;11.80;;;11.40;;
22068;SDS011;13887;57.196;-2.100;2023-07-29T12:52:50;12.20;;;11.80;;
22068;SDS011;13887;57.196;-2.100;2023-07-29T12:55:17;12.37;;;11.97;;
22068;SDS011;13887;57.196;-2.100;2023-07-29T12:57:49;12.17;;;11.77;;
22068;SDS011;13887;57.196;-2.100;2023-07-29T13:00:17;11.63;;;11.23;;
22068;SDS011;13887;57.196;-2.100;2023-07-29T13:02:44;11.80;;;11.40;;
22068;SDS011;13887;57.196;-2.100;2023-07-29T13:05:12;11.80;;;11.40;;
22068;SDS011;13887;57.196;-2.100;2023-07-29T13:07:39;11.60;;;11.20;;
22068;SDS011;13887;57.196;-2.100;2023-07-29T13:10:07;11.60;;;11.20;;
22068;SDS011;13887;57.196;-2.100;2023-07-29T13:12:38;12.00;;;11.60;;
22068;SDS011;13887;57.196;-2.100;2023-07-29T13:15:06;11.80;;;11.40;;
22068;SDS011;13887;57.196;-2.100;2023-07-29T13:17:34;12.00;;;11.60;;
22068;SDS011;13887;57.196;-2.100;2023-07-29T13:20:01;11.73;;;11.33;;
22068;SDS011;13887;57.196;-2.100;2023-07-29T13:22:29;11.70;;;11.30;;
22068;SDS011;13887;57.196;-2.100;2023-07-29T13:24:56;11.97;;;11.57;;
22068;SDS011;13887;57.196;-2.100;2023-07-29T13:27:23;12.20;;;11.80;;
22068;SDS011;13887;57.196;-2.100;2023-07-29T13:29:52;11.70;;;11.30;;
22068;SDS011;13887;57.196;-2.100;2023-07-29T13:32:19;11.37;;;11.00;;
22068;SDS011;13887;57.196;-2.100;2023-07-29T13:34:46;11.70;;;11.30;;
22068;SDS011;13887;57.196;-2.100;2023-07-29T13:37:14;11.23;;;10.93;;
22068;SDS011;13887;57.196;-2.100;2023-07-29T13:39:41;11.90;;;11.50;;
22068;SDS011;13887;57.196;-2.100;2023-07-29T13:42:08;11.70;;;11.30;;
22068;SDS011;13887;57.196;-2.100;2023-07-29T13:44:35;11.43;;;11.03;;
22068;SDS011;13887;57.196;-2.100;2023-07-29T13:47:02;11.13;;;10.83;;
22068;SDS011;13887;57.196;-2.100;2023-07-29T13:49:29;11.50;;;11.10;;
22068;SDS011;13887;57.196;-2.100;2023-07-29T13:51:56;11.13;;;10.83;;
22068;SDS011;13887;57.196;-2.100;2023-07-29T13:54:24;11.60;;;11.20;;
22068;SDS011;13887;57.196;-2.100;2023-07-29T13:56:51;10.80;;;10.50;;
22068;SDS011;13887;57.196;-2.100;2023-07-29T13:59:20;11.43;;;11.03;;
22068;SDS011;13887;57.196;-2.100;2023-07-29T14:01:47;11.20;;;10.90;;
22068;SDS011;13887;57.196;-2.100;2023-07-29T14:04:14;11.60;;;11.20;;
22068;SDS011;13887;57.196;-2.100;2023-07-29T14:06:41;11.37;;;11.00;;
22068;SDS011;13887;57.196;-2.100;2023-07-29T14:09:12;11.80;;;11.40;;
22068;SDS011;13887;57.196;-2.100;2023-07-29T14:11:39;11.20;;;10.90;;
22068;SDS011;13887;57.196;-2.100;2023-07-29T14:14:07;11.50;;;11.10;;
22068;SDS011;13887;57.196;-2.100;2023-07-29T14:16:34;11.53;;;11.13;;
22068;SDS011;13887;57.196;-2.100;2023-07-29T14:19:02;10.87;;;10.57;;
22068;SDS011;13887;57.196;-2.100;2023-07-29T14:21:29;10.93;;;10.63;;
22068;SDS011;13887;57.196;-2.100;2023-07-29T14:23:57;11.67;;;11.27;;
22068;SDS011;13887;57.196;-2.100;2023-07-29T14:26:24;11.70;;;11.30;;
22068;SDS011;13887;57.196;-2.100;2023-07-29T14:28:51;11.63;;;11.23;;
22068;SDS011;13887;57.196;-2.100;2023-07-29T14:31:19;11.60;;;11.20;;
22068;SDS011;13887;57.196;-2.100;2023-07-29T14:33:46;11.70;;;11.30;;
22068;SDS011;13887;57.196;-2.100;2023-07-29T14:36:13;11.47;;;11.07;;